createdAt,value
2019-05-18T10:43:53.696Z,12.80
2019-05-18T10:46:27.492Z,12.43
2019-05-18T10:49:02.722Z,14.25
2019-05-18T10:51:35.443Z,13.53
2019-05-18T10:54:07.923Z,14.53
2019-05-18T10:56:44.733Z,14.78
2019-05-18T10:59:18.301Z,14.23
2019-05-18T11:01:52.220Z,14.25
2019-05-18T11:06:56.887Z,15.15
2019-05-18T11:09:30.242Z,14.83
2019-05-18T11:12:02.102Z,14.15
2019-05-18T11:14:33.814Z,13.28
2019-05-18T11:17:06.345Z,13.48
2019-05-18T11:19:37.966Z,13.25
2019-05-18T11:22:09.875Z,13.55
2019-05-18T11:24:41.848Z,13.95
2019-05-18T11:27:15.051Z,13.28
2019-05-18T11:29:48.163Z,12.40
2019-05-18T11:32:19.864Z,12.70
2019-05-18T11:34:52.420Z,13.85
2019-05-18T11:37:23.988Z,13.35
2019-05-18T11:39:56.607Z,16.23
2019-05-18T11:42:28.457Z,14.38
2019-05-18T11:44:59.850Z,12.55
2019-05-18T11:47:32.835Z,13.58
2019-05-18T11:50:09.563Z,14.95
2019-05-18T11:52:41.037Z,14.85
2019-05-18T11:55:14.147Z,15.30
2019-05-18T11:57:46.116Z,14.43
2019-05-18T12:00:18.131Z,12.50
2019-05-18T12:02:52.154Z,13.90
2019-05-18T12:05:25.633Z,13.65
2019-05-18T12:07:57.757Z,14.75
2019-05-18T12:10:30.910Z,13.72
2019-05-18T12:13:04.045Z,13.10
2019-05-18T12:15:36.399Z,13.33
2019-05-18T12:18:08.166Z,12.28
2019-05-18T12:20:39.830Z,15.35
2019-05-18T12:23:11.401Z,13.53
2019-05-18T12:25:43.297Z,14.68
2019-05-18T12:28:15.113Z,13.18
2019-05-18T12:30:47.634Z,15.58
2019-05-18T12:33:19.314Z,14.20
2019-05-18T12:35:51.839Z,15.08
2019-05-18T12:38:23.563Z,14.25
2019-05-18T12:40:55.828Z,15.38
2019-05-18T12:43:27.241Z,16.20
2019-05-18T12:45:58.717Z,14.80
2019-05-18T12:48:30.355Z,15.85
2019-05-18T12:51:01.815Z,15.32
2019-05-18T12:53:34.152Z,16.00
2019-05-18T12:56:06.798Z,17.45
2019-05-18T12:58:42.003Z,16.48
2019-05-18T13:01:15.153Z,14.18
2019-05-18T13:03:48.195Z,14.90
2019-05-18T13:06:21.443Z,16.80
2019-05-18T13:08:53.123Z,16.52
2019-05-18T13:11:25.943Z,17.02
2019-05-18T13:13:57.939Z,15.53
2019-05-18T13:16:29.176Z,15.25
2019-05-18T13:19:01.057Z,16.30
2019-05-18T13:21:32.435Z,15.20
2019-05-18T13:24:03.949Z,15.58
2019-05-18T13:26:35.752Z,15.65
2019-05-18T13:29:07.419Z,16.95
2019-05-18T13:31:40.192Z,15.63
2019-05-18T13:34:11.962Z,15.90
2019-05-18T13:36:46.772Z,15.55
2019-05-18T13:39:20.028Z,17.05
2019-05-18T13:41:51.732Z,16.57
2019-05-18T13:44:23.940Z,16.50
2019-05-18T13:46:56.946Z,16.15
2019-05-18T13:49:30.078Z,16.00
2019-05-18T13:52:02.943Z,16.75
2019-05-18T13:54:35.405Z,15.70
2019-05-18T13:57:06.874Z,17.67
2019-05-18T13:59:38.598Z,16.35
2019-05-18T14:02:10.083Z,17.32
2019-05-18T14:04:41.372Z,16.45
2019-05-18T14:07:12.658Z,16.50
2019-05-18T14:09:44.164Z,16.17
2019-05-18T14:12:15.940Z,15.75
2019-05-18T14:14:47.682Z,16.45
2019-05-18T14:17:19.062Z,17.62
2019-05-18T14:19:52.482Z,17.02
2019-05-18T14:22:24.029Z,17.05
2019-05-18T14:24:57.473Z,16.93
2019-05-18T14:27:31.911Z,17.02
2019-05-18T14:30:04.402Z,16.55
2019-05-18T14:32:35.941Z,16.25
2019-05-18T14:35:11.785Z,15.20
2019-05-18T14:37:43.864Z,15.78
2019-05-18T14:40:16.905Z,15.30
2019-05-18T14:42:48.618Z,17.40
2019-05-18T14:45:20.109Z,16.55
2019-05-18T14:47:53.013Z,16.90
2019-05-18T14:50:25.217Z,18.25
2019-05-18T14:52:58.664Z,16.77
2019-05-18T14:55:33.634Z,18.27
2019-05-18T14:58:03.827Z,18.55
2019-05-18T15:00:35.595Z,19.55
2019-05-18T15:03:08.155Z,18.32
2019-05-18T15:05:41.065Z,18.80
2019-05-18T15:08:12.786Z,19.40
2019-05-18T15:10:45.195Z,19.15
2019-05-18T15:13:17.238Z,18.95
2019-05-18T15:15:49.366Z,19.85
2019-05-18T15:18:22.232Z,20.62
2019-05-18T15:20:53.718Z,19.00
2019-05-18T15:23:25.855Z,19.42
2019-05-18T15:25:59.408Z,18.27
2019-05-18T15:28:31.410Z,18.42
2019-05-18T15:31:04.935Z,19.57
2019-05-18T15:33:36.551Z,18.45
2019-05-18T15:36:08.304Z,18.45
2019-05-18T15:38:41.295Z,20.17
2019-05-18T15:41:14.282Z,18.67
2019-05-18T15:43:46.336Z,21.85
2019-05-18T15:46:18.006Z,19.37
2019-05-18T15:48:49.369Z,18.95
2019-05-18T15:51:22.543Z,18.85
2019-05-18T15:53:56.337Z,18.50
2019-05-18T15:56:28.215Z,18.12
2019-05-18T15:58:59.903Z,19.20
2019-05-18T16:01:34.114Z,18.80
2019-05-18T16:04:06.839Z,16.30
2019-05-18T16:06:39.640Z,16.77
2019-05-18T16:09:11.527Z,19.95
2019-05-18T16:11:44.456Z,17.85
2019-05-18T16:14:15.935Z,19.92
2019-05-18T16:16:48.545Z,18.30
2019-05-18T16:19:20.545Z,19.95
2019-05-18T16:21:52.482Z,18.15
2019-05-18T16:24:24.225Z,18.87
2019-05-18T16:26:55.754Z,19.87
2019-05-18T16:29:30.200Z,18.42
2019-05-18T16:32:03.303Z,19.52
2019-05-18T16:34:36.087Z,19.60
2019-05-18T16:37:07.871Z,17.48
2019-05-18T16:39:41.329Z,19.15
2019-05-18T16:42:13.246Z,18.95
2019-05-18T16:44:44.926Z,20.15
2019-05-18T16:47:16.423Z,17.27
2019-05-18T16:49:48.581Z,17.62
2019-05-18T16:52:22.952Z,15.72
2019-05-18T16:54:54.673Z,18.07
2019-05-18T16:57:26.422Z,18.05
2019-05-18T16:59:57.922Z,19.27
2019-05-18T17:02:33.103Z,17.10
2019-05-18T17:05:05.614Z,16.00
2019-05-18T17:07:37.784Z,16.95
2019-05-18T17:10:10.120Z,18.85
2019-05-18T17:12:41.916Z,16.50
2019-05-18T17:15:13.724Z,19.10
2019-05-18T17:17:49.059Z,19.27
2019-05-18T17:20:21.705Z,18.37
2019-05-18T17:22:53.544Z,19.15
2019-05-18T17:25:25.121Z,16.42
2019-05-18T17:27:56.940Z,18.65
2019-05-18T17:30:28.423Z,20.75
2019-05-18T17:33:00.079Z,18.60
2019-05-18T17:35:33.315Z,19.40
2019-05-18T17:38:06.142Z,17.60
2019-05-18T17:40:37.890Z,19.80
2019-05-18T17:43:09.667Z,19.35
2019-05-18T17:45:44.090Z,19.02
2019-05-18T17:48:17.156Z,18.62
2019-05-18T17:50:48.723Z,19.55
2019-05-18T17:53:21.547Z,18.70
2019-05-18T17:55:53.663Z,18.87
2019-05-18T17:58:25.833Z,20.90
2019-05-18T18:00:57.492Z,20.50
2019-05-18T18:03:29.017Z,20.90
2019-05-18T18:06:01.946Z,21.12
2019-05-18T18:08:33.558Z,20.55
2019-05-18T18:11:08.090Z,19.75
2019-05-18T18:13:39.823Z,20.32
2019-05-18T18:16:11.869Z,20.45
2019-05-18T18:18:43.654Z,21.07
2019-05-18T18:21:18.136Z,19.73
2019-05-18T18:26:24.928Z,19.77
2019-05-18T18:28:56.682Z,20.07
2019-05-18T18:31:29.257Z,21.37
2019-05-18T18:34:01.151Z,20.80
2019-05-18T18:36:33.011Z,20.72
2019-05-18T18:39:04.767Z,19.67
2019-05-18T18:41:36.528Z,19.98
2019-05-18T18:44:09.287Z,19.92
2019-05-18T18:46:42.406Z,21.07
2019-05-18T18:49:14.087Z,21.17
2019-05-18T18:51:45.482Z,20.20
2019-05-18T18:54:21.548Z,21.87
2019-05-18T18:56:54.289Z,21.30
2019-05-18T18:59:26.074Z,20.62
2019-05-18T19:01:58.597Z,20.80
2019-05-18T19:04:30.182Z,19.70
2019-05-18T19:07:02.568Z,19.30
2019-05-18T19:09:35.735Z,20.25
2019-05-18T19:12:08.269Z,19.50
2019-05-18T19:14:41.258Z,21.65
2019-05-18T19:17:17.776Z,20.48
2019-05-18T19:19:49.984Z,19.75
2019-05-18T19:22:23.459Z,20.37
2019-05-18T19:24:55.872Z,19.35
2019-05-18T19:27:27.647Z,21.02
2019-05-18T19:30:00.307Z,22.52
2019-05-18T19:32:31.924Z,20.55
2019-05-18T19:35:03.676Z,19.67
2019-05-18T19:37:35.193Z,19.92
2019-05-18T19:40:11.664Z,19.95
2019-05-18T19:42:43.940Z,20.43
2019-05-18T19:45:17.209Z,18.45
2019-05-18T19:47:49.936Z,21.48
2019-05-18T19:50:22.779Z,19.67
2019-05-18T19:52:54.356Z,21.80
2019-05-18T19:55:30.511Z,19.17
2019-05-18T19:58:08.848Z,20.97
2019-05-18T20:03:09.630Z,20.10
2019-05-18T20:05:41.209Z,18.98
2019-05-18T20:08:13.610Z,19.57
2019-05-18T20:10:46.935Z,17.77
2019-05-18T20:13:19.667Z,19.48
2019-05-18T20:15:52.263Z,21.12
2019-05-18T20:18:25.149Z,19.23
2019-05-18T20:20:58.456Z,18.73
2019-05-18T20:23:31.264Z,19.27
2019-05-18T20:26:03.634Z,16.40
2019-05-18T20:28:36.833Z,17.20
2019-05-18T20:31:09.605Z,17.50
2019-05-18T20:33:42.200Z,21.35
2019-05-18T20:36:15.907Z,18.70
2019-05-18T20:38:48.517Z,18.30
2019-05-18T20:41:21.005Z,18.55
2019-05-18T20:43:53.355Z,21.40
2019-05-18T20:46:25.101Z,19.95
2019-05-18T20:48:57.992Z,18.95
2019-05-18T20:51:32.759Z,18.48
2019-05-18T20:54:05.272Z,19.07
2019-05-18T20:56:36.937Z,20.32
2019-05-18T20:59:08.505Z,19.02
2019-05-18T21:01:41.334Z,20.65
2019-05-18T21:04:14.096Z,19.27
2019-05-18T21:06:45.985Z,17.98
2019-05-18T21:09:18.208Z,18.92
2019-05-18T21:11:50.216Z,19.87
2019-05-18T21:14:22.840Z,19.57
2019-05-18T21:16:55.684Z,20.25
2019-05-18T21:19:28.546Z,19.42
2019-05-18T21:22:01.708Z,19.98
2019-05-18T21:24:33.440Z,20.30
2019-05-18T21:27:05.389Z,20.10
2019-05-18T21:29:37.310Z,20.37
2019-05-18T21:32:11.732Z,18.82
2019-05-18T21:37:16.992Z,18.20
2019-05-18T21:39:53.354Z,19.67
2019-05-18T21:42:25.166Z,17.60
2019-05-18T21:44:56.847Z,16.77
2019-05-18T21:47:29.829Z,18.17
2019-05-18T21:50:02.519Z,18.60
2019-05-18T21:52:35.436Z,18.85
2019-05-18T21:55:09.992Z,17.82
2019-05-18T21:57:43.450Z,17.25
2019-05-18T22:00:15.093Z,21.50
2019-05-18T22:02:46.831Z,22.37
2019-05-18T22:05:20.059Z,19.05
2019-05-18T22:07:53.226Z,19.30
2019-05-18T22:10:26.285Z,20.83
2019-05-18T22:12:59.511Z,19.67
2019-05-18T22:15:32.222Z,18.55
2019-05-18T22:18:06.518Z,18.32
2019-05-18T22:20:43.737Z,18.20
2019-05-18T22:23:15.766Z,19.20
2019-05-18T22:25:47.565Z,20.92
2019-05-18T22:28:19.328Z,20.12
2019-05-18T22:30:52.141Z,18.07
2019-05-18T22:33:24.835Z,19.00
2019-05-18T22:36:00.564Z,20.15
2019-05-18T22:38:32.951Z,20.20
2019-05-18T22:41:06.002Z,19.50
2019-05-18T22:43:37.333Z,20.00
2019-05-18T22:46:08.989Z,18.52
2019-05-18T22:48:41.955Z,19.52
2019-05-18T22:51:14.533Z,19.82
2019-05-18T22:53:47.071Z,19.30
2019-05-18T22:56:19.481Z,21.48
2019-05-18T22:58:52.293Z,19.80
2019-05-18T23:01:24.805Z,18.23
2019-05-18T23:03:57.951Z,19.92
2019-05-18T23:06:29.585Z,19.92
2019-05-18T23:09:01.252Z,18.77
2019-05-18T23:11:32.774Z,20.05
2019-05-18T23:14:05.522Z,21.27
2019-05-18T23:16:37.578Z,20.48
2019-05-18T23:19:09.766Z,20.60
2019-05-18T23:21:42.235Z,20.77
2019-05-18T23:24:15.008Z,20.65
2019-05-18T23:26:46.597Z,21.20
2019-05-18T23:29:19.018Z,20.40
2019-05-18T23:31:51.364Z,19.98
2019-05-18T23:34:23.135Z,21.75
2019-05-18T23:36:55.548Z,20.48
2019-05-18T23:39:26.933Z,21.05
2019-05-18T23:41:58.604Z,20.75
2019-05-18T23:44:30.791Z,21.23
2019-05-18T23:47:03.215Z,21.85
2019-05-18T23:49:36.147Z,20.70
2019-05-18T23:52:08.528Z,18.95
2019-05-18T23:54:40.972Z,21.07
2019-05-18T23:57:12.779Z,20.90
2019-05-18T23:59:45.604Z,19.82
